sensor_id;sensor_type;location;lat;lon;timestamp;P1;durP1;ratioP1;P2;durP2;ratioP2
84021;SDS011;74108;48.636;9.492;2023-12-20T00:01:20;1.42;;;1.10;;
84021;SDS011;74108;48.636;9.492;2023-12-20T00:03:46;1.33;;;0.95;;
84021;SDS011;74108;48.636;9.492;2023-12-20T00:06:11;1.92;;;1.20;;
84021;SDS011;74108;48.636;9.492;2023-12-20T00:08:37;1.90;;;1.10;;
84021;SDS011;74108;48.636;9.492;2023-12-20T00:11:02;1.33;;;1.08;;
84021;SDS011;74108;48.636;9.492;2023-12-20T00:13:28;1.33;;;0.98;;
84021;SDS011;74108;48.636;9.492;2023-12-20T00:15:53;1.52;;;1.00;;
84021;SDS011;74108;48.636;9.492;2023-12-20T00:18:18;1.65;;;1.00;;
84021;SDS011;74108;48.636;9.492;2023-12-20T00:20:44;1.05;;;0.75;;
84021;SDS011;74108;48.636;9.492;2023-12-20T00:23:09;1.10;;;0.85;;
84021;SDS011;74108;48.636;9.492;2023-12-20T00:25:34;0.95;;;0.70;;
84021;SDS011;74108;48.636;9.492;2023-12-20T00:28:00;1.17;;;0.77;;
84021;SDS011;74108;48.636;9.492;2023-12-20T00:30:26;1.02;;;0.80;;
84021;SDS011;74108;48.636;9.492;2023-12-20T00:32:51;1.27;;;0.82;;
84021;SDS011;74108;48.636;9.492;2023-12-20T00:35:17;1.60;;;1.00;;
84021;SDS011;74108;48.636;9.492;2023-12-20T00:37:42;1.55;;;0.95;;
84021;SDS011;74108;48.636;9.492;2023-12-20T00:40:08;1.42;;;0.90;;
84021;SDS011;74108;48.636;9.492;2023-12-20T00:42:34;0.77;;;0.77;;
84021;SDS011;74108;48.636;9.492;2023-12-20T00:45:01;1.08;;;0.90;;
84021;SDS011;74108;48.636;9.492;2023-12-20T00:47:27;0.85;;;0.77;;
84021;SDS011;74108;48.636;9.492;2023-12-20T00:49:52;2.55;;;0.80;;
84021;SDS011;74108;48.636;9.492;2023-12-20T00:52:18;1.52;;;0.90;;
84021;SDS011;74108;48.636;9.492;2023-12-20T00:54:43;1.30;;;0.80;;
84021;SDS011;74108;48.636;9.492;2023-12-20T00:57:09;0.80;;;0.77;;
84021;SDS011;74108;48.636;9.492;2023-12-20T00:59:34;1.50;;;0.93;;
84021;SDS011;74108;48.636;9.492;2023-12-20T01:02:00;0.75;;;0.57;;
84021;SDS011;74108;48.636;9.492;2023-12-20T01:04:40;0.77;;;0.63;;
84021;SDS011;74108;48.636;9.492;2023-12-20T01:07:06;0.98;;;0.90;;
84021;SDS011;74108;48.636;9.492;2023-12-20T01:09:31;1.25;;;0.80;;
84021;SDS011;74108;48.636;9.492;2023-12-20T01:11:56;1.35;;;0.82;;
84021;SDS011;74108;48.636;9.492;2023-12-20T01:14:22;0.73;;;0.63;;
84021;SDS011;74108;48.636;9.492;2023-12-20T01:16:47;0.85;;;0.68;;
84021;SDS011;74108;48.636;9.492;2023-12-20T01:19:13;0.93;;;0.70;;
84021;SDS011;74108;48.636;9.492;2023-12-20T01:21:39;1.63;;;0.80;;
84021;SDS011;74108;48.636;9.492;2023-12-20T01:24:05;0.93;;;0.68;;
84021;SDS011;74108;48.636;9.492;2023-12-20T01:26:30;0.90;;;0.70;;
84021;SDS011;74108;48.636;9.492;2023-12-20T01:28:55;1.25;;;0.85;;
84021;SDS011;74108;48.636;9.492;2023-12-20T01:31:21;0.70;;;0.68;;
84021;SDS011;74108;48.636;9.492;2023-12-20T01:33:46;1.10;;;0.80;;
84021;SDS011;74108;48.636;9.492;2023-12-20T01:36:12;2.10;;;0.90;;
84021;SDS011;74108;48.636;9.492;2023-12-20T01:38:37;2.38;;;0.80;;
84021;SDS011;74108;48.636;9.492;2023-12-20T01:41:03;1.17;;;0.77;;
84021;SDS011;74108;48.636;9.492;2023-12-20T01:43:29;5.15;;;1.10;;
84021;SDS011;74108;48.636;9.492;2023-12-20T01:45:58;1.23;;;0.88;;
84021;SDS011;74108;48.636;9.492;2023-12-20T01:48:24;6.57;;;1.30;;
84021;SDS011;74108;48.636;9.492;2023-12-20T01:50:51;2.45;;;1.10;;
84021;SDS011;74108;48.636;9.492;2023-12-20T01:53:16;1.90;;;1.20;;
84021;SDS011;74108;48.636;9.492;2023-12-20T01:55:43;1.75;;;0.90;;
84021;SDS011;74108;48.636;9.492;2023-12-20T01:58:09;2.67;;;1.00;;
84021;SDS011;74108;48.636;9.492;2023-12-20T02:00:36;1.17;;;0.93;;
84021;SDS011;74108;48.636;9.492;2023-12-20T02:03:02;1.33;;;0.85;;
84021;SDS011;74108;48.636;9.492;2023-12-20T02:05:32;1.30;;;0.88;;
84021;SDS011;74108;48.636;9.492;2023-12-20T02:07:58;1.58;;;1.10;;
84021;SDS011;74108;48.636;9.492;2023-12-20T02:10:24;3.08;;;0.90;;
84021;SDS011;74108;48.636;9.492;2023-12-20T02:12:50;1.30;;;0.90;;
84021;SDS011;74108;48.636;9.492;2023-12-20T02:15:15;1.88;;;1.00;;
84021;SDS011;74108;48.636;9.492;2023-12-20T02:17:41;1.40;;;1.10;;
84021;SDS011;74108;48.636;9.492;2023-12-20T02:20:08;2.70;;;1.10;;
84021;SDS011;74108;48.636;9.492;2023-12-20T02:22:33;1.98;;;1.02;;
84021;SDS011;74108;48.636;9.492;2023-12-20T02:24:58;1.33;;;1.00;;
84021;SDS011;74108;48.636;9.492;2023-12-20T02:27:24;1.70;;;1.05;;
84021;SDS011;74108;48.636;9.492;2023-12-20T02:29:49;2.90;;;1.30;;
84021;SDS011;74108;48.636;9.492;2023-12-20T02:32:18;2.05;;;1.20;;
84021;SDS011;74108;48.636;9.492;2023-12-20T02:34:46;3.65;;;1.40;;
84021;SDS011;74108;48.636;9.492;2023-12-20T02:37:15;1.58;;;1.20;;
84021;SDS011;74108;48.636;9.492;2023-12-20T02:39:41;1.40;;;0.95;;
84021;SDS011;74108;48.636;9.492;2023-12-20T02:42:06;2.13;;;1.20;;
84021;SDS011;74108;48.636;9.492;2023-12-20T02:44:31;1.80;;;1.13;;
84021;SDS011;74108;48.636;9.492;2023-12-20T02:46:57;1.52;;;0.90;;
84021;SDS011;74108;48.636;9.492;2023-12-20T02:49:22;1.88;;;1.27;;
84021;SDS011;74108;48.636;9.492;2023-12-20T02:51:47;1.40;;;1.20;;
84021;SDS011;74108;48.636;9.492;2023-12-20T02:54:13;1.80;;;1.05;;
84021;SDS011;74108;48.636;9.492;2023-12-20T02:56:38;1.52;;;1.10;;
84021;SDS011;74108;48.636;9.492;2023-12-20T02:59:04;1.40;;;1.08;;
84021;SDS011;74108;48.636;9.492;2023-12-20T03:01:31;2.35;;;1.10;;
84021;SDS011;74108;48.636;9.492;2023-12-20T03:03:57;1.83;;;1.15;;
84021;SDS011;74108;48.636;9.492;2023-12-20T03:06:22;1.85;;;1.17;;
84021;SDS011;74108;48.636;9.492;2023-12-20T03:08:47;1.25;;;1.00;;
84021;SDS011;74108;48.636;9.492;2023-12-20T03:11:13;1.73;;;1.17;;
84021;SDS011;74108;48.636;9.492;2023-12-20T03:13:38;1.67;;;0.90;;
84021;SDS011;74108;48.636;9.492;2023-12-20T03:16:10;1.45;;;1.20;;
84021;SDS011;74108;48.636;9.492;2023-12-20T03:18:37;2.65;;;1.08;;
84021;SDS011;74108;48.636;9.492;2023-12-20T03:21:03;1.63;;;1.00;;
84021;SDS011;74108;48.636;9.492;2023-12-20T03:23:29;1.33;;;0.90;;
84021;SDS011;74108;48.636;9.492;2023-12-20T03:25:55;1.67;;;1.08;;
84021;SDS011;74108;48.636;9.492;2023-12-20T03:28:22;3.08;;;1.17;;
84021;SDS011;74108;48.636;9.492;2023-12-20T03:30:48;1.05;;;0.90;;
84021;SDS011;74108;48.636;9.492;2023-12-20T03:33:13;1.60;;;1.10;;
84021;SDS011;74108;48.636;9.492;2023-12-20T03:35:39;1.73;;;1.08;;
84021;SDS011;74108;48.636;9.492;2023-12-20T03:38:04;2.08;;;1.13;;
84021;SDS011;74108;48.636;9.492;2023-12-20T03:40:30;1.65;;;1.00;;
84021;SDS011;74108;48.636;9.492;2023-12-20T03:42:55;1.02;;;0.93;;
84021;SDS011;74108;48.636;9.492;2023-12-20T03:45:20;1.50;;;1.10;;
84021;SDS011;74108;48.636;9.492;2023-12-20T03:47:46;1.17;;;0.90;;
84021;SDS011;74108;48.636;9.492;2023-12-20T03:50:12;1.17;;;0.88;;
84021;SDS011;74108;48.636;9.492;2023-12-20T03:52:38;1.08;;;0.80;;
84021;SDS011;74108;48.636;9.492;2023-12-20T03:55:03;1.25;;;0.88;;
84021;SDS011;74108;48.636;9.492;2023-12-20T03:57:29;1.00;;;0.90;;
84021;SDS011;74108;48.636;9.492;2023-12-20T03:59:54;1.08;;;0.70;;
84021;SDS011;74108;48.636;9.492;2023-12-20T04:02:20;1.80;;;1.10;;
84021;SDS011;74108;48.636;9.492;2023-12-20T04:04:45;1.70;;;0.80;;
84021;SDS011;74108;48.636;9.492;2023-12-20T04:07:11;0.90;;;0.70;;
84021;SDS011;74108;48.636;9.492;2023-12-20T04:09:36;1.08;;;0.80;;
84021;SDS011;74108;48.636;9.492;2023-12-20T04:12:02;1.33;;;0.80;;
84021;SDS011;74108;48.636;9.492;2023-12-20T04:14:28;0.70;;;0.70;;
84021;SDS011;74108;48.636;9.492;2023-12-20T04:16:53;0.65;;;0.60;;
84021;SDS011;74108;48.636;9.492;2023-12-20T04:19:19;1.00;;;0.70;;
84021;SDS011;74108;48.636;9.492;2023-12-20T04:21:44;0.57;;;0.40;;
84021;SDS011;74108;48.636;9.492;2023-12-20T04:24:10;0.90;;;0.52;;
84021;SDS011;74108;48.636;9.492;2023-12-20T04:26:35;0.88;;;0.57;;
84021;SDS011;74108;48.636;9.492;2023-12-20T04:29:01;0.65;;;0.60;;
84021;SDS011;74108;48.636;9.492;2023-12-20T04:31:26;0.47;;;0.47;;
84021;SDS011;74108;48.636;9.492;2023-12-20T04:33:52;0.65;;;0.65;;
84021;SDS011;74108;48.636;9.492;2023-12-20T04:36:17;0.85;;;0.60;;
84021;SDS011;74108;48.636;9.492;2023-12-20T04:38:42;0.90;;;0.80;;
84021;SDS011;74108;48.636;9.492;2023-12-20T04:41:08;0.90;;;0.60;;
84021;SDS011;74108;48.636;9.492;2023-12-20T04:43:33;0.85;;;0.57;;
84021;SDS011;74108;48.636;9.492;2023-12-20T04:45:58;0.90;;;0.55;;
84021;SDS011;74108;48.636;9.492;2023-12-20T04:48:24;0.43;;;0.38;;
84021;SDS011;74108;48.636;9.492;2023-12-20T04:50:49;0.68;;;0.45;;
84021;SDS011;74108;48.636;9.492;2023-12-20T04:53:14;0.60;;;0.43;;
84021;SDS011;74108;48.636;9.492;2023-12-20T04:55:42;0.65;;;0.40;;
84021;SDS011;74108;48.636;9.492;2023-12-20T04:58:08;0.50;;;0.50;;
84021;SDS011;74108;48.636;9.492;2023-12-20T05:00:33;0.73;;;0.45;;
84021;SDS011;74108;48.636;9.492;2023-12-20T05:02:59;1.90;;;0.68;;
84021;SDS011;74108;48.636;9.492;2023-12-20T05:05:25;0.50;;;0.40;;
84021;SDS011;74108;48.636;9.492;2023-12-20T05:07:50;0.93;;;0.50;;
84021;SDS011;74108;48.636;9.492;2023-12-20T05:10:15;0.55;;;0.35;;
84021;SDS011;74108;48.636;9.492;2023-12-20T05:12:41;0.50;;;0.30;;
84021;SDS011;74108;48.636;9.492;2023-12-20T05:15:06;0.82;;;0.50;;
84021;SDS011;74108;48.636;9.492;2023-12-20T05:17:32;0.80;;;0.40;;
84021;SDS011;74108;48.636;9.492;2023-12-20T05:19:57;1.10;;;0.43;;
84021;SDS011;74108;48.636;9.492;2023-12-20T05:22:22;1.55;;;0.40;;
84021;SDS011;74108;48.636;9.492;2023-12-20T05:24:48;0.80;;;0.60;;
84021;SDS011;74108;48.636;9.492;2023-12-20T05:27:14;0.95;;;0.47;;
84021;SDS011;74108;48.636;9.492;2023-12-20T05:29:39;1.98;;;0.70;;
84021;SDS011;74108;48.636;9.492;2023-12-20T05:32:04;0.40;;;0.28;;
84021;SDS011;74108;48.636;9.492;2023-12-20T05:34:30;0.95;;;0.40;;
84021;SDS011;74108;48.636;9.492;2023-12-20T05:36:57;0.90;;;0.60;;
84021;SDS011;74108;48.636;9.492;2023-12-20T05:39:23;0.20;;;0.20;;
84021;SDS011;74108;48.636;9.492;2023-12-20T05:41:51;0.40;;;0.30;;
84021;SDS011;74108;48.636;9.492;2023-12-20T05:44:16;1.65;;;0.52;;
84021;SDS011;74108;48.636;9.492;2023-12-20T05:46:42;0.70;;;0.60;;
84021;SDS011;74108;48.636;9.492;2023-12-20T05:49:07;1.17;;;0.70;;
84021;SDS011;74108;48.636;9.492;2023-12-20T05:51:32;2.67;;;1.10;;
84021;SDS011;74108;48.636;9.492;2023-12-20T05:53:58;6.05;;;1.75;;
84021;SDS011;74108;48.636;9.492;2023-12-20T05:56:24;2.00;;;1.30;;
84021;SDS011;74108;48.636;9.492;2023-12-20T05:58:49;1.40;;;1.05;;
84021;SDS011;74108;48.636;9.492;2023-12-20T06:01:15;2.72;;;1.35;;
84021;SDS011;74108;48.636;9.492;2023-12-20T06:03:42;1.40;;;1.00;;
84021;SDS011;74108;48.636;9.492;2023-12-20T06:06:08;1.48;;;1.10;;
84021;SDS011;74108;48.636;9.492;2023-12-20T06:08:34;0.95;;;0.82;;
84021;SDS011;74108;48.636;9.492;2023-12-20T06:10:59;1.80;;;0.90;;
84021;SDS011;74108;48.636;9.492;2023-12-20T06:13:25;2.85;;;1.83;;
84021;SDS011;74108;48.636;9.492;2023-12-20T06:15:50;1.38;;;1.08;;
84021;SDS011;74108;48.636;9.492;2023-12-20T06:18:17;3.78;;;2.00;;
84021;SDS011;74108;48.636;9.492;2023-12-20T06:23:51;6.60;;;3.63;;
84021;SDS011;74108;48.636;9.492;2023-12-20T06:26:17;2.78;;;2.10;;
84021;SDS011;74108;48.636;9.492;2023-12-20T06:28:42;2.28;;;1.05;;
84021;SDS011;74108;48.636;9.492;2023-12-20T06:31:07;3.75;;;2.03;;
84021;SDS011;74108;48.636;9.492;2023-12-20T06:33:45;4.43;;;2.13;;
84021;SDS011;74108;48.636;9.492;2023-12-20T06:36:46;2.63;;;1.52;;
84021;SDS011;74108;48.636;9.492;2023-12-20T06:41:55;1.90;;;1.30;;
84021;SDS011;74108;48.636;9.492;2023-12-20T06:44:21;2.13;;;1.42;;
84021;SDS011;74108;48.636;9.492;2023-12-20T06:46:46;2.65;;;1.35;;
84021;SDS011;74108;48.636;9.492;2023-12-20T06:49:11;4.07;;;2.00;;
84021;SDS011;74108;48.636;9.492;2023-12-20T06:51:37;2.85;;;1.05;;
84021;SDS011;74108;48.636;9.492;2023-12-20T06:54:02;2.20;;;1.30;;
84021;SDS011;74108;48.636;9.492;2023-12-20T06:56:28;2.65;;;1.30;;
84021;SDS011;74108;48.636;9.492;2023-12-20T06:58:54;3.22;;;1.35;;
84021;SDS011;74108;48.636;9.492;2023-12-20T07:01:19;3.40;;;1.88;;
84021;SDS011;74108;48.636;9.492;2023-12-20T07:03:44;5.65;;;1.67;;
84021;SDS011;74108;48.636;9.492;2023-12-20T07:06:10;8.30;;;2.33;;
84021;SDS011;74108;48.636;9.492;2023-12-20T07:08:35;3.15;;;1.50;;
84021;SDS011;74108;48.636;9.492;2023-12-20T07:11:01;3.10;;;1.90;;
84021;SDS011;74108;48.636;9.492;2023-12-20T07:13:26;4.43;;;1.73;;
84021;SDS011;74108;48.636;9.492;2023-12-20T07:15:51;3.10;;;1.60;;
84021;SDS011;74108;48.636;9.492;2023-12-20T07:18:17;2.53;;;1.45;;
84021;SDS011;74108;48.636;9.492;2023-12-20T07:20:42;2.10;;;1.40;;
84021;SDS011;74108;48.636;9.492;2023-12-20T07:23:08;2.33;;;1.30;;
84021;SDS011;74108;48.636;9.492;2023-12-20T07:25:34;1.45;;;1.00;;
84021;SDS011;74108;48.636;9.492;2023-12-20T07:27:59;1.65;;;1.00;;
84021;SDS011;74108;48.636;9.492;2023-12-20T07:30:25;2.10;;;1.27;;
84021;SDS011;74108;48.636;9.492;2023-12-20T07:32:50;1.55;;;1.00;;
84021;SDS011;74108;48.636;9.492;2023-12-20T07:35:16;2.88;;;1.40;;
84021;SDS011;74108;48.636;9.492;2023-12-20T07:37:41;1.55;;;0.85;;
84021;SDS011;74108;48.636;9.492;2023-12-20T07:40:07;2.25;;;1.23;;
84021;SDS011;74108;48.636;9.492;2023-12-20T07:42:33;1.98;;;1.00;;
84021;SDS011;74108;48.636;9.492;2023-12-20T07:44:58;1.25;;;0.95;;
84021;SDS011;74108;48.636;9.492;2023-12-20T07:47:24;1.70;;;0.88;;
84021;SDS011;74108;48.636;9.492;2023-12-20T07:49:50;1.40;;;1.00;;
84021;SDS011;74108;48.636;9.492;2023-12-20T07:52:19;3.55;;;1.20;;
84021;SDS011;74108;48.636;9.492;2023-12-20T07:54:44;1.17;;;0.68;;
84021;SDS011;74108;48.636;9.492;2023-12-20T07:57:13;2.75;;;1.10;;
84021;SDS011;74108;48.636;9.492;2023-12-20T07:59:55;1.38;;;0.98;;
84021;SDS011;74108;48.636;9.492;2023-12-20T08:02:21;1.08;;;0.90;;
84021;SDS011;74108;48.636;9.492;2023-12-20T08:04:46;1.00;;;0.90;;
84021;SDS011;74108;48.636;9.492;2023-12-20T08:07:12;2.22;;;1.00;;
84021;SDS011;74108;48.636;9.492;2023-12-20T08:09:37;1.73;;;1.10;;
84021;SDS011;74108;48.636;9.492;2023-12-20T08:12:03;1.20;;;0.80;;
84021;SDS011;74108;48.636;9.492;2023-12-20T08:14:28;2.75;;;1.30;;
84021;SDS011;74108;48.636;9.492;2023-12-20T08:16:54;1.13;;;0.90;;
84021;SDS011;74108;48.636;9.492;2023-12-20T08:19:19;2.03;;;1.33;;
84021;SDS011;74108;48.636;9.492;2023-12-20T08:21:45;1.55;;;1.05;;
84021;SDS011;74108;48.636;9.492;2023-12-20T08:24:10;2.88;;;1.40;;
84021;SDS011;74108;48.636;9.492;2023-12-20T08:26:35;2.30;;;1.60;;
84021;SDS011;74108;48.636;9.492;2023-12-20T08:29:01;2.85;;;1.60;;
84021;SDS011;74108;48.636;9.492;2023-12-20T08:31:26;3.33;;;2.05;;
84021;SDS011;74108;48.636;9.492;2023-12-20T08:33:52;3.35;;;2.10;;
84021;SDS011;74108;48.636;9.492;2023-12-20T08:36:18;4.85;;;2.40;;
84021;SDS011;74108;48.636;9.492;2023-12-20T08:41:11;2.97;;;1.80;;
84021;SDS011;74108;48.636;9.492;2023-12-20T08:43:37;2.80;;;1.85;;
84021;SDS011;74108;48.636;9.492;2023-12-20T08:46:04;2.85;;;1.70;;
84021;SDS011;74108;48.636;9.492;2023-12-20T08:48:29;3.17;;;1.83;;
84021;SDS011;74108;48.636;9.492;2023-12-20T08:50:55;3.85;;;1.80;;
84021;SDS011;74108;48.636;9.492;2023-12-20T08:53:20;3.72;;;2.47;;
84021;SDS011;74108;48.636;9.492;2023-12-20T08:55:46;3.20;;;1.80;;
84021;SDS011;74108;48.636;9.492;2023-12-20T08:58:12;3.55;;;2.03;;
84021;SDS011;74108;48.636;9.492;2023-12-20T09:00:38;4.18;;;2.13;;
84021;SDS011;74108;48.636;9.492;2023-12-20T09:03:04;4.30;;;2.40;;
84021;SDS011;74108;48.636;9.492;2023-12-20T09:05:29;4.57;;;2.30;;
84021;SDS011;74108;48.636;9.492;2023-12-20T09:07:55;3.97;;;2.20;;
84021;SDS011;74108;48.636;9.492;2023-12-20T09:10:20;4.28;;;2.42;;
84021;SDS011;74108;48.636;9.492;2023-12-20T09:12:48;3.53;;;2.30;;
84021;SDS011;74108;48.636;9.492;2023-12-20T09:15:14;5.93;;;2.63;;
84021;SDS011;74108;48.636;9.492;2023-12-20T09:17:40;6.68;;;3.20;;
84021;SDS011;74108;48.636;9.492;2023-12-20T09:20:06;5.97;;;2.83;;
84021;SDS011;74108;48.636;9.492;2023-12-20T09:22:33;6.05;;;3.28;;
84021;SDS011;74108;48.636;9.492;2023-12-20T09:24:59;5.90;;;2.67;;
84021;SDS011;74108;48.636;9.492;2023-12-20T09:27:25;7.57;;;3.42;;
84021;SDS011;74108;48.636;9.492;2023-12-20T09:29:50;7.15;;;3.55;;
84021;SDS011;74108;48.636;9.492;2023-12-20T09:32:15;6.97;;;3.65;;
84021;SDS011;74108;48.636;9.492;2023-12-20T09:34:41;5.40;;;3.20;;
84021;SDS011;74108;48.636;9.492;2023-12-20T09:37:07;9.07;;;3.75;;
84021;SDS011;74108;48.636;9.492;2023-12-20T09:39:32;7.35;;;3.40;;
84021;SDS011;74108;48.636;9.492;2023-12-20T09:42:02;6.35;;;3.65;;
84021;SDS011;74108;48.636;9.492;2023-12-20T09:44:29;6.45;;;3.45;;
84021;SDS011;74108;48.636;9.492;2023-12-20T09:46:56;8.90;;;3.85;;
84021;SDS011;74108;48.636;9.492;2023-12-20T09:49:22;7.72;;;3.03;;
84021;SDS011;74108;48.636;9.492;2023-12-20T09:51:50;6.18;;;3.13;;
84021;SDS011;74108;48.636;9.492;2023-12-20T09:54:17;6.65;;;3.15;;
84021;SDS011;74108;48.636;9.492;2023-12-20T09:56:43;6.22;;;2.42;;
84021;SDS011;74108;48.636;9.492;2023-12-20T09:59:08;5.22;;;2.33;;
84021;SDS011;74108;48.636;9.492;2023-12-20T10:01:34;3.78;;;2.00;;
84021;SDS011;74108;48.636;9.492;2023-12-20T10:04:00;3.30;;;2.20;;
84021;SDS011;74108;48.636;9.492;2023-12-20T10:06:32;7.38;;;2.65;;
84021;SDS011;74108;48.636;9.492;2023-12-20T10:08:57;5.68;;;2.33;;
84021;SDS011;74108;48.636;9.492;2023-12-20T10:11:22;5.90;;;2.63;;
84021;SDS011;74108;48.636;9.492;2023-12-20T10:13:48;4.43;;;1.77;;
84021;SDS011;74108;48.636;9.492;2023-12-20T10:16:13;5.35;;;2.22;;
84021;SDS011;74108;48.636;9.492;2023-12-20T10:18:39;2.50;;;1.73;;
84021;SDS011;74108;48.636;9.492;2023-12-20T10:21:04;4.70;;;2.10;;
84021;SDS011;74108;48.636;9.492;2023-12-20T10:23:31;3.50;;;1.90;;
84021;SDS011;74108;48.636;9.492;2023-12-20T10:26:00;5.38;;;1.80;;
84021;SDS011;74108;48.636;9.492;2023-12-20T10:28:25;5.70;;;2.30;;
84021;SDS011;74108;48.636;9.492;2023-12-20T10:30:55;4.32;;;1.65;;
84021;SDS011;74108;48.636;9.492;2023-12-20T10:33:26;2.08;;;1.40;;
84021;SDS011;74108;48.636;9.492;2023-12-20T10:35:53;5.82;;;1.90;;
84021;SDS011;74108;48.636;9.492;2023-12-20T10:38:19;3.35;;;1.50;;
84021;SDS011;74108;48.636;9.492;2023-12-20T10:40:45;3.70;;;1.63;;
84021;SDS011;74108;48.636;9.492;2023-12-20T10:43:11;3.65;;;1.40;;
84021;SDS011;74108;48.636;9.492;2023-12-20T10:45:38;4.10;;;1.50;;
84021;SDS011;74108;48.636;9.492;2023-12-20T10:48:04;6.82;;;1.73;;
84021;SDS011;74108;48.636;9.492;2023-12-20T10:50:30;4.43;;;1.85;;
84021;SDS011;74108;48.636;9.492;2023-12-20T10:52:57;3.72;;;1.50;;
84021;SDS011;74108;48.636;9.492;2023-12-20T10:55:23;2.50;;;1.55;;
84021;SDS011;74108;48.636;9.492;2023-12-20T10:57:50;6.93;;;1.63;;
84021;SDS011;74108;48.636;9.492;2023-12-20T11:00:17;4.13;;;1.73;;
84021;SDS011;74108;48.636;9.492;2023-12-20T11:02:43;4.32;;;1.65;;
84021;SDS011;74108;48.636;9.492;2023-12-20T11:05:11;4.07;;;1.65;;
84021;SDS011;74108;48.636;9.492;2023-12-20T11:07:50;6.30;;;1.70;;
84021;SDS011;74108;48.636;9.492;2023-12-20T11:10:23;2.45;;;1.40;;
84021;SDS011;74108;48.636;9.492;2023-12-20T11:12:58;2.97;;;1.55;;
84021;SDS011;74108;48.636;9.492;2023-12-20T11:15:28;5.03;;;1.83;;
84021;SDS011;74108;48.636;9.492;2023-12-20T11:17:55;4.28;;;1.73;;
84021;SDS011;74108;48.636;9.492;2023-12-20T11:20:22;5.95;;;1.60;;
84021;SDS011;74108;48.636;9.492;2023-12-20T11:23:07;3.17;;;1.50;;
84021;SDS011;74108;48.636;9.492;2023-12-20T11:25:53;3.60;;;1.42;;
84021;SDS011;74108;48.636;9.492;2023-12-20T11:28:22;6.57;;;1.70;;
84021;SDS011;74108;48.636;9.492;2023-12-20T11:30:50;4.55;;;1.80;;
84021;SDS011;74108;48.636;9.492;2023-12-20T11:35:46;4.10;;;1.63;;
84021;SDS011;74108;48.636;9.492;2023-12-20T11:38:13;5.03;;;1.45;;
84021;SDS011;74108;48.636;9.492;2023-12-20T11:40:39;7.68;;;1.50;;
84021;SDS011;74108;48.636;9.492;2023-12-20T11:43:06;5.00;;;1.60;;
84021;SDS011;74108;48.636;9.492;2023-12-20T11:45:32;4.10;;;1.65;;
84021;SDS011;74108;48.636;9.492;2023-12-20T11:47:59;5.07;;;1.85;;
84021;SDS011;74108;48.636;9.492;2023-12-20T11:50:27;3.50;;;1.40;;
84021;SDS011;74108;48.636;9.492;2023-12-20T11:52:54;2.53;;;1.33;;
84021;SDS011;74108;48.636;9.492;2023-12-20T11:55:22;4.15;;;1.73;;
84021;SDS011;74108;48.636;9.492;2023-12-20T11:57:50;4.57;;;1.52;;
84021;SDS011;74108;48.636;9.492;2023-12-20T12:00:17;5.07;;;1.50;;
84021;SDS011;74108;48.636;9.492;2023-12-20T12:02:54;7.32;;;1.70;;
84021;SDS011;74108;48.636;9.492;2023-12-20T12:05:21;3.67;;;1.50;;
84021;SDS011;74108;48.636;9.492;2023-12-20T12:07:47;3.47;;;1.60;;
84021;SDS011;74108;48.636;9.492;2023-12-20T12:10:12;8.60;;;1.90;;
84021;SDS011;74108;48.636;9.492;2023-12-20T12:12:38;2.75;;;1.30;;
84021;SDS011;74108;48.636;9.492;2023-12-20T12:15:03;3.72;;;1.50;;
84021;SDS011;74108;48.636;9.492;2023-12-20T12:17:30;2.38;;;1.40;;
84021;SDS011;74108;48.636;9.492;2023-12-20T12:20:04;4.32;;;1.60;;
84021;SDS011;74108;48.636;9.492;2023-12-20T12:22:31;3.40;;;1.70;;
84021;SDS011;74108;48.636;9.492;2023-12-20T12:24:59;2.58;;;1.33;;
84021;SDS011;74108;48.636;9.492;2023-12-20T12:27:34;3.47;;;1.67;;
84021;SDS011;74108;48.636;9.492;2023-12-20T12:30:03;4.35;;;1.80;;
84021;SDS011;74108;48.636;9.492;2023-12-20T12:32:32;2.67;;;1.45;;
84021;SDS011;74108;48.636;9.492;2023-12-20T12:34:57;5.20;;;1.73;;
84021;SDS011;74108;48.636;9.492;2023-12-20T12:37:23;5.38;;;1.85;;
84021;SDS011;74108;48.636;9.492;2023-12-20T12:39:54;4.80;;;1.88;;
84021;SDS011;74108;48.636;9.492;2023-12-20T12:42:20;2.40;;;1.50;;
84021;SDS011;74108;48.636;9.492;2023-12-20T12:44:46;2.88;;;1.30;;
84021;SDS011;74108;48.636;9.492;2023-12-20T12:47:12;2.72;;;1.38;;
84021;SDS011;74108;48.636;9.492;2023-12-20T12:49:37;4.47;;;1.40;;
84021;SDS011;74108;48.636;9.492;2023-12-20T12:52:03;4.47;;;1.70;;
84021;SDS011;74108;48.636;9.492;2023-12-20T12:54:28;3.00;;;1.38;;
84021;SDS011;74108;48.636;9.492;2023-12-20T12:56:54;5.63;;;1.52;;
84021;SDS011;74108;48.636;9.492;2023-12-20T12:59:19;2.78;;;1.50;;
84021;SDS011;74108;48.636;9.492;2023-12-20T13:01:44;3.90;;;1.42;;
84021;SDS011;74108;48.636;9.492;2023-12-20T13:04:10;5.70;;;1.50;;
84021;SDS011;74108;48.636;9.492;2023-12-20T13:06:38;4.18;;;1.52;;
84021;SDS011;74108;48.636;9.492;2023-12-20T13:11:34;2.45;;;1.40;;
84021;SDS011;74108;48.636;9.492;2023-12-20T13:13:59;2.17;;;1.30;;
84021;SDS011;74108;48.636;9.492;2023-12-20T13:16:25;3.50;;;1.38;;
84021;SDS011;74108;48.636;9.492;2023-12-20T13:18:51;5.20;;;1.50;;
84021;SDS011;74108;48.636;9.492;2023-12-20T13:21:16;7.32;;;1.45;;
84021;SDS011;74108;48.636;9.492;2023-12-20T13:23:42;3.53;;;1.13;;
84021;SDS011;74108;48.636;9.492;2023-12-20T13:26:07;2.80;;;1.42;;
84021;SDS011;74108;48.636;9.492;2023-12-20T13:28:33;5.65;;;1.40;;
84021;SDS011;74108;48.636;9.492;2023-12-20T13:30:58;4.45;;;1.30;;
84021;SDS011;74108;48.636;9.492;2023-12-20T13:33:23;5.93;;;1.45;;
84021;SDS011;74108;48.636;9.492;2023-12-20T13:35:49;4.40;;;1.60;;
84021;SDS011;74108;48.636;9.492;2023-12-20T13:38:14;5.40;;;1.60;;
84021;SDS011;74108;48.636;9.492;2023-12-20T13:40:40;5.25;;;1.85;;
84021;SDS011;74108;48.636;9.492;2023-12-20T13:43:05;2.53;;;1.38;;
84021;SDS011;74108;48.636;9.492;2023-12-20T13:45:31;3.78;;;1.30;;
84021;SDS011;74108;48.636;9.492;2023-12-20T13:47:56;4.65;;;1.42;;
84021;SDS011;74108;48.636;9.492;2023-12-20T13:50:21;2.95;;;1.30;;
84021;SDS011;74108;48.636;9.492;2023-12-20T13:52:47;5.30;;;1.70;;
84021;SDS011;74108;48.636;9.492;2023-12-20T13:55:13;3.38;;;1.25;;
84021;SDS011;74108;48.636;9.492;2023-12-20T13:57:38;3.08;;;1.40;;
84021;SDS011;74108;48.636;9.492;2023-12-20T14:00:05;4.63;;;1.77;;
84021;SDS011;74108;48.636;9.492;2023-12-20T14:02:30;6.25;;;1.50;;
84021;SDS011;74108;48.636;9.492;2023-12-20T14:04:56;2.72;;;1.33;;
84021;SDS011;74108;48.636;9.492;2023-12-20T14:07:21;4.70;;;1.35;;
84021;SDS011;74108;48.636;9.492;2023-12-20T14:09:47;7.10;;;1.40;;
84021;SDS011;74108;48.636;9.492;2023-12-20T14:12:12;3.03;;;1.45;;
84021;SDS011;74108;48.636;9.492;2023-12-20T14:14:38;3.70;;;1.23;;
84021;SDS011;74108;48.636;9.492;2023-12-20T14:17:04;7.90;;;1.75;;
84021;SDS011;74108;48.636;9.492;2023-12-20T14:19:31;4.78;;;1.30;;
84021;SDS011;74108;48.636;9.492;2023-12-20T14:21:57;2.05;;;1.35;;
84021;SDS011;74108;48.636;9.492;2023-12-20T14:24:26;2.05;;;1.15;;
84021;SDS011;74108;48.636;9.492;2023-12-20T14:26:52;2.45;;;1.27;;
84021;SDS011;74108;48.636;9.492;2023-12-20T14:29:18;3.47;;;1.20;;
84021;SDS011;74108;48.636;9.492;2023-12-20T14:31:43;4.85;;;1.30;;
84021;SDS011;74108;48.636;9.492;2023-12-20T14:34:08;2.88;;;1.40;;
84021;SDS011;74108;48.636;9.492;2023-12-20T14:36:34;3.65;;;1.77;;
84021;SDS011;74108;48.636;9.492;2023-12-20T14:39:00;4.20;;;1.50;;
84021;SDS011;74108;48.636;9.492;2023-12-20T14:41:26;4.18;;;1.55;;
84021;SDS011;74108;48.636;9.492;2023-12-20T14:43:51;2.47;;;1.38;;
84021;SDS011;74108;48.636;9.492;2023-12-20T14:46:18;5.65;;;1.30;;
84021;SDS011;74108;48.636;9.492;2023-12-20T14:48:43;3.78;;;1.30;;
84021;SDS011;74108;48.636;9.492;2023-12-20T14:51:09;1.85;;;1.23;;
84021;SDS011;74108;48.636;9.492;2023-12-20T14:53:35;2.75;;;1.30;;
84021;SDS011;74108;48.636;9.492;2023-12-20T14:56:03;4.07;;;1.60;;